Hyderabad Weather



Hyderabad's Current Weather

Temprature 32.74o overcast clouds

overcast clouds

Rain: 0 %

Min Temprature32.74o
Max Temprature32.74o
Humidity57
Wind Speed8.35 m/h
Sun Rise05:49:23
Sun Set19:16:19
Current Time: 24-Jul-2021 16:24:53
Lat/Lon: 25.3924, 68.3737




Hyderabad's Geo Location



Hyderabad's Weather Forecast

Time Overall Temp Min Temp Max Temp Humidity Wind Speed Rain
24-Jul-2021 (Sat)
17:00:00 overcast clouds 32.810 32.810 32.810 58 8.32 m/h 0 %
20:00:00 broken clouds 31.960 30.250 31.960 62 8.55 m/h 0 %
23:00:00 scattered clouds 30.400 29.190 30.400 70 8.51 m/h 0 %
25-Jul-2021 (Sun)
02:00:00 scattered clouds 28.580 28.580 28.580 78 9.37 m/h 0 %
05:00:00 broken clouds 28.240 28.240 28.240 78 8.86 m/h 0 %
08:00:00 broken clouds 29.600 29.600 29.600 74 10.45 m/h 0 %
11:00:00 scattered clouds 35.500 35.500 35.500 49 9.55 m/h 0 %
14:00:00 broken clouds 38.230 38.230 38.230 40 9.48 m/h 0 %
17:00:00 overcast clouds 35.280 35.280 35.280 48 10.03 m/h 0 %
20:00:00 overcast clouds 31.400 31.400 31.400 62 10.23 m/h 0 %
23:00:00 overcast clouds 29.650 29.650 29.650 71 10.22 m/h 0 %
26-Jul-2021 (Mon)
02:00:00 overcast clouds 29.020 29.020 29.020 74 9.77 m/h 0 %
05:00:00 overcast clouds 28.540 28.540 28.540 76 10.41 m/h 0 %
08:00:00 broken clouds 29.870 29.870 29.870 70 11.74 m/h 0 %
11:00:00 broken clouds 34.050 34.050 34.050 53 11.67 m/h 0 %
14:00:00 overcast clouds 36.180 36.180 36.180 45 11.06 m/h 0 %
17:00:00 overcast clouds 34.040 34.040 34.040 52 11.43 m/h 0 %
20:00:00 overcast clouds 30.390 30.390 30.390 70 11.06 m/h 0 %
23:00:00 overcast clouds 29.310 29.310 29.310 76 11.12 m/h 0 %
27-Jul-2021 (Tue)
02:00:00 overcast clouds 28.750 28.750 28.750 77 10.66 m/h 0 %
05:00:00 overcast clouds 28.420 28.420 28.420 78 10.47 m/h 0 %
08:00:00 overcast clouds 29.760 29.760 29.760 71 11.2 m/h 0 %
11:00:00 overcast clouds 33.050 33.050 33.050 57 11.73 m/h 0 %
14:00:00 overcast clouds 32.800 32.800 32.800 58 10.49 m/h 0 %
17:00:00 overcast clouds 31.280 31.280 31.280 65 10.3 m/h 0 %
20:00:00 overcast clouds 29.600 29.600 29.600 72 10.45 m/h 0 %
23:00:00 overcast clouds 28.930 28.930 28.930 76 10.15 m/h 0 %
28-Jul-2021 (Wed)
02:00:00 overcast clouds 28.520 28.520 28.520 77 10.87 m/h 0 %
05:00:00 overcast clouds 28.320 28.320 28.320 79 9.75 m/h 0 %
08:00:00 overcast clouds 29.220 29.220 29.220 75 11.41 m/h 0 %
11:00:00 overcast clouds 32.000 32.000 32.000 61 11.58 m/h 0 %
14:00:00 overcast clouds 33.420 33.420 33.420 56 10.88 m/h 0 %
17:00:00 overcast clouds 32.330 32.330 32.330 60 10.11 m/h 0 %
20:00:00 overcast clouds 29.790 29.790 29.790 71 10.46 m/h 0 %
23:00:00 overcast clouds 28.890 28.890 28.890 76 10.54 m/h 0 %
29-Jul-2021 (Thu)
02:00:00 light rain 28.020 28.020 28.020 80 10.19 m/h 58 %
05:00:00 light rain 27.950 27.950 27.950 81 9.85 m/h 45 %
08:00:00 light rain 29.330 29.330 29.330 75 10.31 m/h 106 %
11:00:00 light rain 33.530 33.530 33.530 56 9.06 m/h 68 %
14:00:00 light rain 37.440 37.440 37.440 43 8.1 m/h 14 %


Hyderabad's Tourist Spots

Museums in Hyderabad

Famous Cities (60)